sensor_id;sensor_type;location;lat;lon;timestamp;pressure;altitude;pressure_sealevel;temperature;humidity
30875;BME280;17581;43.222;27.924;2023-05-07T00:00:09;100887.38;;;15.44;52.47
30875;BME280;17581;43.222;27.924;2023-05-07T00:02:36;100882.31;;;15.31;53.20
30875;BME280;17581;43.222;27.924;2023-05-07T00:05:02;100879.03;;;15.27;53.62
30875;BME280;17581;43.222;27.924;2023-05-07T00:07:28;100879.94;;;15.18;53.86
30875;BME280;17581;43.222;27.924;2023-05-07T00:09:54;100908.84;;;15.27;53.77
30875;BME280;17581;43.222;27.924;2023-05-07T00:12:19;100889.91;;;15.18;54.21
30875;BME280;17581;43.222;27.924;2023-05-07T00:14:45;100896.88;;;15.20;54.32
30875;BME280;17581;43.222;27.924;2023-05-07T00:17:10;100889.81;;;15.10;54.55
30875;BME280;17581;43.222;27.924;2023-05-07T00:19:36;100917.16;;;15.16;54.75
30875;BME280;17581;43.222;27.924;2023-05-07T00:22:01;100898.06;;;15.08;55.18
30875;BME280;17581;43.222;27.924;2023-05-07T00:24:27;100885.97;;;15.03;55.41
30875;BME280;17581;43.222;27.924;2023-05-07T00:26:52;100903.19;;;15.02;55.83
30875;BME280;17581;43.222;27.924;2023-05-07T00:29:18;100892.09;;;14.95;56.07
30875;BME280;17581;43.222;27.924;2023-05-07T00:31:43;100875.91;;;14.76;56.51
30875;BME280;17581;43.222;27.924;2023-05-07T00:34:09;100879.03;;;14.81;56.25
30875;BME280;17581;43.222;27.924;2023-05-07T00:36:34;100903.81;;;14.86;56.50
30875;BME280;17581;43.222;27.924;2023-05-07T00:39:00;100902.13;;;14.85;56.92
30875;BME280;17581;43.222;27.924;2023-05-07T00:41:27;100911.09;;;14.86;57.00
30875;BME280;17581;43.222;27.924;2023-05-07T00:43:52;100905.53;;;14.78;57.05
30875;BME280;17581;43.222;27.924;2023-05-07T00:46:20;100898.56;;;14.75;57.11
30875;BME280;17581;43.222;27.924;2023-05-07T00:48:45;100884.19;;;14.65;57.21
30875;BME280;17581;43.222;27.924;2023-05-07T00:51:11;100914.81;;;14.75;57.34
30875;BME280;17581;43.222;27.924;2023-05-07T00:53:37;100904.69;;;14.77;57.08
30875;BME280;17581;43.222;27.924;2023-05-07T00:56:03;100913.66;;;14.68;57.43
30875;BME280;17581;43.222;27.924;2023-05-07T00:58:29;100913.53;;;14.69;57.63
30875;BME280;17581;43.222;27.924;2023-05-07T01:00:55;100914.13;;;14.63;57.62
30875;BME280;17581;43.222;27.924;2023-05-07T01:03:21;100909.28;;;14.57;57.77
30875;BME280;17581;43.222;27.924;2023-05-07T01:05:48;100913.53;;;14.60;57.66
30875;BME280;17581;43.222;27.924;2023-05-07T01:08:15;100917.69;;;14.54;57.64
30875;BME280;17581;43.222;27.924;2023-05-07T01:10:41;100919.81;;;14.51;57.80
30875;BME280;17581;43.222;27.924;2023-05-07T01:13:12;100927.25;;;14.49;57.66
30875;BME280;17581;43.222;27.924;2023-05-07T01:15:38;100914.41;;;14.41;57.85
30875;BME280;17581;43.222;27.924;2023-05-07T01:18:05;100906.44;;;14.40;57.49
30875;BME280;17581;43.222;27.924;2023-05-07T01:20:32;100917.81;;;14.43;57.70
30875;BME280;17581;43.222;27.924;2023-05-07T01:22:57;100899.28;;;14.29;57.60
30875;BME280;17581;43.222;27.924;2023-05-07T01:25:25;100917.28;;;14.40;57.75
30875;BME280;17581;43.222;27.924;2023-05-07T01:27:51;100872.22;;;14.19;57.39
30875;BME280;17581;43.222;27.924;2023-05-07T01:30:16;100902.16;;;14.37;57.49
30875;BME280;17581;43.222;27.924;2023-05-07T01:32:47;100913.53;;;14.41;57.25
30875;BME280;17581;43.222;27.924;2023-05-07T01:35:17;100920.38;;;14.45;57.17
30875;BME280;17581;43.222;27.924;2023-05-07T01:37:44;100889.19;;;14.22;57.16
30875;BME280;17581;43.222;27.924;2023-05-07T01:40:11;100922.41;;;14.43;57.13
30875;BME280;17581;43.222;27.924;2023-05-07T01:42:37;100917.28;;;14.40;57.20
30875;BME280;17581;43.222;27.924;2023-05-07T01:45:03;100915.09;;;14.43;56.85
30875;BME280;17581;43.222;27.924;2023-05-07T01:47:29;100906.72;;;14.37;57.06
30875;BME280;17581;43.222;27.924;2023-05-07T01:49:55;100907.25;;;14.31;56.95
30875;BME280;17581;43.222;27.924;2023-05-07T01:52:21;100907.84;;;14.34;56.76
30875;BME280;17581;43.222;27.924;2023-05-07T01:54:46;100916.41;;;14.39;57.06
30875;BME280;17581;43.222;27.924;2023-05-07T01:57:12;100891.03;;;14.31;56.86
30875;BME280;17581;43.222;27.924;2023-05-07T01:59:37;100902.84;;;14.30;56.81
30875;BME280;17581;43.222;27.924;2023-05-07T02:02:02;100899.72;;;14.34;57.42
30875;BME280;17581;43.222;27.924;2023-05-07T02:04:28;100896.19;;;14.34;56.96
30875;BME280;17581;43.222;27.924;2023-05-07T02:06:53;100886.19;;;14.25;57.26
30875;BME280;17581;43.222;27.924;2023-05-07T02:09:19;100887.75;;;14.27;57.35
30875;BME280;17581;43.222;27.924;2023-05-07T02:11:45;100866.53;;;14.23;57.10
30875;BME280;17581;43.222;27.924;2023-05-07T02:14:10;100898.91;;;14.34;57.05
30875;BME280;17581;43.222;27.924;2023-05-07T02:16:36;100875.94;;;14.18;56.84
30875;BME280;17581;43.222;27.924;2023-05-07T02:19:01;100883.31;;;14.26;57.00
30875;BME280;17581;43.222;27.924;2023-05-07T02:21:27;100875.66;;;14.22;56.93
30875;BME280;17581;43.222;27.924;2023-05-07T02:23:52;100878.63;;;14.18;56.90
30875;BME280;17581;43.222;27.924;2023-05-07T02:26:18;100889.88;;;14.24;56.71
30875;BME280;17581;43.222;27.924;2023-05-07T02:28:43;100879.63;;;14.17;56.98
30875;BME280;17581;43.222;27.924;2023-05-07T02:31:09;100874.38;;;14.06;56.96
30875;BME280;17581;43.222;27.924;2023-05-07T02:33:34;100869.66;;;14.08;57.05
30875;BME280;17581;43.222;27.924;2023-05-07T02:36:11;100881.63;;;14.15;57.47
30875;BME280;17581;43.222;27.924;2023-05-07T02:38:37;100878.19;;;14.13;57.47
30875;BME280;17581;43.222;27.924;2023-05-07T02:41:03;100881.91;;;14.12;57.53
30875;BME280;17581;43.222;27.924;2023-05-07T02:43:29;100887.59;;;14.09;57.88
30875;BME280;17581;43.222;27.924;2023-05-07T02:46:02;100882.47;;;14.06;57.62
30875;BME280;17581;43.222;27.924;2023-05-07T02:48:28;100871.09;;;14.03;57.68
30875;BME280;17581;43.222;27.924;2023-05-07T02:50:53;100884.44;;;14.04;57.39
30875;BME280;17581;43.222;27.924;2023-05-07T02:53:18;100875.91;;;13.99;57.48
30875;BME280;17581;43.222;27.924;2023-05-07T02:55:44;100883.31;;;13.97;57.26
30875;BME280;17581;43.222;27.924;2023-05-07T02:58:09;100887.00;;;13.96;57.20
30875;BME280;17581;43.222;27.924;2023-05-07T03:00:35;100882.47;;;13.97;57.07
30875;BME280;17581;43.222;27.924;2023-05-07T03:03:00;100892.69;;;13.93;57.08
30875;BME280;17581;43.222;27.924;2023-05-07T03:05:26;100875.91;;;13.99;57.04
30875;BME280;17581;43.222;27.924;2023-05-07T03:07:51;100884.16;;;14.07;56.70
30875;BME280;17581;43.222;27.924;2023-05-07T03:10:17;100865.09;;;13.99;56.66
30875;BME280;17581;43.222;27.924;2023-05-07T03:12:43;100891.16;;;14.00;56.77
30875;BME280;17581;43.222;27.924;2023-05-07T03:15:09;100877.63;;;14.00;56.61
30875;BME280;17581;43.222;27.924;2023-05-07T03:17:35;100885.88;;;13.99;56.51
30875;BME280;17581;43.222;27.924;2023-05-07T03:20:01;100891.56;;;13.96;56.32
30875;BME280;17581;43.222;27.924;2023-05-07T03:22:26;100895.53;;;14.01;56.61
30875;BME280;17581;43.222;27.924;2023-05-07T03:24:52;100887.72;;;13.98;56.80
30875;BME280;17581;43.222;27.924;2023-05-07T03:27:17;100901.81;;;14.02;56.66
30875;BME280;17581;43.222;27.924;2023-05-07T03:29:43;100899.81;;;14.04;56.55
30875;BME280;17581;43.222;27.924;2023-05-07T03:32:08;100894.97;;;13.98;56.48
30875;BME280;17581;43.222;27.924;2023-05-07T03:34:33;100905.69;;;14.09;56.31
30875;BME280;17581;43.222;27.924;2023-05-07T03:37:00;100901.25;;;14.08;56.14
30875;BME280;17581;43.222;27.924;2023-05-07T03:39:25;100909.25;;;14.09;56.35
30875;BME280;17581;43.222;27.924;2023-05-07T03:41:50;100907.94;;;14.13;56.47
30875;BME280;17581;43.222;27.924;2023-05-07T03:44:16;100905.81;;;14.17;56.13
30875;BME280;17581;43.222;27.924;2023-05-07T03:46:41;100911.81;;;14.21;56.50
30875;BME280;17581;43.222;27.924;2023-05-07T03:49:07;100901.56;;;14.14;56.64
30875;BME280;17581;43.222;27.924;2023-05-07T03:51:33;100925.75;;;14.26;56.57
30875;BME280;17581;43.222;27.924;2023-05-07T03:53:58;100914.50;;;14.21;56.56
30875;BME280;17581;43.222;27.924;2023-05-07T03:56:24;100928.91;;;14.31;56.58
30875;BME280;17581;43.222;27.924;2023-05-07T03:58:52;100930.59;;;14.32;56.48
30875;BME280;17581;43.222;27.924;2023-05-07T04:01:17;100929.06;;;14.39;56.26
30875;BME280;17581;43.222;27.924;2023-05-07T04:03:43;100936.22;;;14.49;55.74
30875;BME280;17581;43.222;27.924;2023-05-07T04:06:08;100936.06;;;14.51;55.74
30875;BME280;17581;43.222;27.924;2023-05-07T04:08:34;100927.53;;;14.46;56.15
30875;BME280;17581;43.222;27.924;2023-05-07T04:10:59;100932.09;;;14.55;55.61
30875;BME280;17581;43.222;27.924;2023-05-07T04:13:25;100949.03;;;14.57;55.80
30875;BME280;17581;43.222;27.924;2023-05-07T04:15:51;100936.34;;;14.57;55.42
30875;BME280;17581;43.222;27.924;2023-05-07T04:18:17;100955.13;;;14.78;55.14
30875;BME280;17581;43.222;27.924;2023-05-07T04:20:42;100948.28;;;14.84;54.86
30875;BME280;17581;43.222;27.924;2023-05-07T04:23:08;100954.97;;;14.89;54.20
30875;BME280;17581;43.222;27.924;2023-05-07T04:25:33;100947.72;;;14.90;53.75
30875;BME280;17581;43.222;27.924;2023-05-07T04:27:59;100932.59;;;14.87;53.81
30875;BME280;17581;43.222;27.924;2023-05-07T04:30:25;100922.63;;;14.88;53.54
30875;BME280;17581;43.222;27.924;2023-05-07T04:32:50;100949.69;;;15.07;53.62
30875;BME280;17581;43.222;27.924;2023-05-07T04:35:16;100933.56;;;15.05;53.46
30875;BME280;17581;43.222;27.924;2023-05-07T04:37:41;100957.63;;;15.27;53.09
30875;BME280;17581;43.222;27.924;2023-05-07T04:40:07;100959.75;;;15.34;52.80
30875;BME280;17581;43.222;27.924;2023-05-07T04:42:33;100967.28;;;15.40;52.76
30875;BME280;17581;43.222;27.924;2023-05-07T04:44:58;100962.56;;;15.42;52.70
30875;BME280;17581;43.222;27.924;2023-05-07T04:47:23;100971.84;;;15.49;52.71
30875;BME280;17581;43.222;27.924;2023-05-07T04:49:49;100971.97;;;15.57;52.17
30875;BME280;17581;43.222;27.924;2023-05-07T04:52:14;100974.78;;;15.65;52.38
30875;BME280;17581;43.222;27.924;2023-05-07T04:54:40;100970.06;;;15.67;51.89
30875;BME280;17581;43.222;27.924;2023-05-07T04:57:06;100980.03;;;15.76;51.85
30875;BME280;17581;43.222;27.924;2023-05-07T04:59:32;100965.00;;;15.82;51.71
30875;BME280;17581;43.222;27.924;2023-05-07T05:01:57;100971.69;;;15.87;51.44
30875;BME280;17581;43.222;27.924;2023-05-07T05:04:23;100984.19;;;15.98;51.77
30875;BME280;17581;43.222;27.924;2023-05-07T05:06:49;100968.19;;;16.04;51.17
30875;BME280;17581;43.222;27.924;2023-05-07T05:09:14;100982.13;;;16.09;51.67
30875;BME280;17581;43.222;27.924;2023-05-07T05:11:41;100962.69;;;16.14;51.41
30875;BME280;17581;43.222;27.924;2023-05-07T05:14:06;100981.84;;;16.30;50.55
30875;BME280;17581;43.222;27.924;2023-05-07T05:16:32;100976.53;;;16.38;50.40
30875;BME280;17581;43.222;27.924;2023-05-07T05:18:58;100974.97;;;16.36;50.80
30875;BME280;17581;43.222;27.924;2023-05-07T05:21:23;100984.44;;;16.49;50.30
30875;BME280;17581;43.222;27.924;2023-05-07T05:23:49;100989.69;;;16.60;50.42
30875;BME280;17581;43.222;27.924;2023-05-07T05:26:15;100981.75;;;16.67;49.93
30875;BME280;17581;43.222;27.924;2023-05-07T05:28:40;100984.03;;;16.71;50.06
30875;BME280;17581;43.222;27.924;2023-05-07T05:31:05;100966.19;;;16.69;49.46
30875;BME280;17581;43.222;27.924;2023-05-07T05:33:31;100982.59;;;16.85;49.65
30875;BME280;17581;43.222;27.924;2023-05-07T05:35:56;100978.63;;;16.97;49.56
30875;BME280;17581;43.222;27.924;2023-05-07T05:38:22;100968.84;;;17.04;48.95
30875;BME280;17581;43.222;27.924;2023-05-07T05:40:47;100978.84;;;17.21;48.25
30875;BME280;17581;43.222;27.924;2023-05-07T05:43:14;100988.91;;;17.29;47.36
30875;BME280;17581;43.222;27.924;2023-05-07T05:45:40;100971.75;;;17.28;47.54
30875;BME280;17581;43.222;27.924;2023-05-07T05:48:06;101000.03;;;17.43;47.00
30875;BME280;17581;43.222;27.924;2023-05-07T05:50:31;100985.22;;;17.38;47.13
30875;BME280;17581;43.222;27.924;2023-05-07T05:52:57;101004.09;;;17.57;47.07
30875;BME280;17581;43.222;27.924;2023-05-07T05:55:23;101003.53;;;17.54;46.55
30875;BME280;17581;43.222;27.924;2023-05-07T05:57:49;101010.53;;;17.56;46.42
30875;BME280;17581;43.222;27.924;2023-05-07T06:00:15;100999.50;;;17.58;46.92
30875;BME280;17581;43.222;27.924;2023-05-07T06:02:41;101006.41;;;17.78;46.59
30875;BME280;17581;43.222;27.924;2023-05-07T06:05:08;101008.50;;;17.92;46.63
30875;BME280;17581;43.222;27.924;2023-05-07T06:07:33;101003.69;;;18.12;45.71
30875;BME280;17581;43.222;27.924;2023-05-07T06:10:00;101013.06;;;18.17;45.33
30875;BME280;17581;43.222;27.924;2023-05-07T06:12:25;101018.88;;;18.22;45.47
30875;BME280;17581;43.222;27.924;2023-05-07T06:14:51;101009.31;;;18.18;44.36
30875;BME280;17581;43.222;27.924;2023-05-07T06:17:17;101012.19;;;18.17;45.13
30875;BME280;17581;43.222;27.924;2023-05-07T06:19:43;101004.59;;;18.28;44.83
30875;BME280;17581;43.222;27.924;2023-05-07T06:22:08;101002.44;;;18.40;44.75
30875;BME280;17581;43.222;27.924;2023-05-07T06:24:34;101016.94;;;18.57;43.82
30875;BME280;17581;43.222;27.924;2023-05-07T06:26:59;101015.41;;;18.54;43.74
30875;BME280;17581;43.222;27.924;2023-05-07T06:29:25;101009.63;;;18.57;43.45
30875;BME280;17581;43.222;27.924;2023-05-07T06:31:55;101000.28;;;18.60;43.39
30875;BME280;17581;43.222;27.924;2023-05-07T06:34:21;100971.94;;;18.44;43.98
30875;BME280;17581;43.222;27.924;2023-05-07T06:36:46;101024.84;;;18.84;43.96
30875;BME280;17581;43.222;27.924;2023-05-07T06:39:12;101010.03;;;18.86;43.25
30875;BME280;17581;43.222;27.924;2023-05-07T06:41:37;100999.63;;;18.74;43.41
30875;BME280;17581;43.222;27.924;2023-05-07T06:44:03;101003.69;;;18.70;43.55
30875;BME280;17581;43.222;27.924;2023-05-07T06:46:29;100992.66;;;18.79;43.43
30875;BME280;17581;43.222;27.924;2023-05-07T06:48:54;101020.41;;;18.99;43.13
30875;BME280;17581;43.222;27.924;2023-05-07T06:51:20;101014.13;;;18.98;43.60
30875;BME280;17581;43.222;27.924;2023-05-07T06:53:45;100984.97;;;18.75;43.34
30875;BME280;17581;43.222;27.924;2023-05-07T06:56:11;101013.28;;;18.98;43.24
30875;BME280;17581;43.222;27.924;2023-05-07T06:58:37;101011.72;;;19.12;43.13
30875;BME280;17581;43.222;27.924;2023-05-07T07:01:02;101002.53;;;19.13;42.79
30875;BME280;17581;43.222;27.924;2023-05-07T07:03:28;101009.00;;;19.28;42.35
30875;BME280;17581;43.222;27.924;2023-05-07T07:05:54;101001.00;;;19.34;42.61
30875;BME280;17581;43.222;27.924;2023-05-07T07:08:19;101018.22;;;19.43;42.82
30875;BME280;17581;43.222;27.924;2023-05-07T07:10:46;101002.69;;;19.51;42.93
30875;BME280;17581;43.222;27.924;2023-05-07T07:13:12;101021.75;;;19.76;42.17
30875;BME280;17581;43.222;27.924;2023-05-07T07:15:38;101020.34;;;19.88;41.57
30875;BME280;17581;43.222;27.924;2023-05-07T07:18:04;100991.00;;;19.82;41.83
30875;BME280;17581;43.222;27.924;2023-05-07T07:20:29;101010.44;;;19.95;41.89
30875;BME280;17581;43.222;27.924;2023-05-07T07:22:54;101014.66;;;20.05;41.62
30875;BME280;17581;43.222;27.924;2023-05-07T07:25:20;101027.44;;;20.13;41.23
30875;BME280;17581;43.222;27.924;2023-05-07T07:27:45;101020.59;;;20.09;41.63
30875;BME280;17581;43.222;27.924;2023-05-07T07:30:11;101018.88;;;20.16;40.87
30875;BME280;17581;43.222;27.924;2023-05-07T07:32:37;101020.91;;;20.22;41.00
30875;BME280;17581;43.222;27.924;2023-05-07T07:35:02;101028.78;;;20.17;40.21
30875;BME280;17581;43.222;27.924;2023-05-07T07:37:28;101027.75;;;20.18;40.93
30875;BME280;17581;43.222;27.924;2023-05-07T07:39:55;101022.28;;;20.26;40.83
30875;BME280;17581;43.222;27.924;2023-05-07T07:42:20;101016.81;;;20.26;40.57
30875;BME280;17581;43.222;27.924;2023-05-07T07:44:45;101009.06;;;20.38;40.21
30875;BME280;17581;43.222;27.924;2023-05-07T07:47:11;101021.25;;;20.58;39.44
30875;BME280;17581;43.222;27.924;2023-05-07T07:49:36;101020.44;;;20.49;39.18
30875;BME280;17581;43.222;27.924;2023-05-07T07:52:02;101018.78;;;20.40;39.49
30875;BME280;17581;43.222;27.924;2023-05-07T07:54:27;101045.03;;;20.49;38.77
30875;BME280;17581;43.222;27.924;2023-05-07T07:56:54;101045.41;;;20.46;37.47
30875;BME280;17581;43.222;27.924;2023-05-07T07:59:20;101036.81;;;20.57;37.94
30875;BME280;17581;43.222;27.924;2023-05-07T08:01:45;101032.31;;;20.64;37.79
30875;BME280;17581;43.222;27.924;2023-05-07T08:04:11;101029.34;;;20.74;37.31
30875;BME280;17581;43.222;27.924;2023-05-07T08:06:36;101048.25;;;20.84;36.04
30875;BME280;17581;43.222;27.924;2023-05-07T08:09:03;101033.31;;;20.72;36.10
30875;BME280;17581;43.222;27.924;2023-05-07T08:11:28;101047.75;;;20.80;36.10
30875;BME280;17581;43.222;27.924;2023-05-07T08:13:54;101040.28;;;20.74;37.36
30875;BME280;17581;43.222;27.924;2023-05-07T08:16:20;101031.91;;;20.76;37.88
30875;BME280;17581;43.222;27.924;2023-05-07T08:18:45;101018.66;;;20.64;38.47
30875;BME280;17581;43.222;27.924;2023-05-07T08:21:11;101039.53;;;20.88;35.89
30875;BME280;17581;43.222;27.924;2023-05-07T08:23:36;101027.38;;;20.91;34.35
30875;BME280;17581;43.222;27.924;2023-05-07T08:26:02;101026.63;;;20.97;31.10
30875;BME280;17581;43.222;27.924;2023-05-07T08:28:27;101019.22;;;21.05;33.12
30875;BME280;17581;43.222;27.924;2023-05-07T08:30:53;101029.59;;;21.18;33.52
30875;BME280;17581;43.222;27.924;2023-05-07T08:33:18;101015.25;;;21.08;34.25
30875;BME280;17581;43.222;27.924;2023-05-07T08:35:44;101010.81;;;21.07;35.08
30875;BME280;17581;43.222;27.924;2023-05-07T08:38:09;101020.28;;;21.27;38.35
30875;BME280;17581;43.222;27.924;2023-05-07T08:40:39;101011.22;;;21.27;41.59
30875;BME280;17581;43.222;27.924;2023-05-07T08:43:06;101027.88;;;21.17;42.23
30875;BME280;17581;43.222;27.924;2023-05-07T08:45:33;101005.34;;;21.15;42.20
30875;BME280;17581;43.222;27.924;2023-05-07T08:48:01;101031.22;;;21.27;41.70
30875;BME280;17581;43.222;27.924;2023-05-07T08:50:27;101021.66;;;21.23;41.51
30875;BME280;17581;43.222;27.924;2023-05-07T08:52:53;101014.97;;;21.03;42.84
30875;BME280;17581;43.222;27.924;2023-05-07T08:55:18;101011.22;;;21.27;42.24
30875;BME280;17581;43.222;27.924;2023-05-07T08:57:45;101013.31;;;21.39;41.97
30875;BME280;17581;43.222;27.924;2023-05-07T09:00:11;100992.81;;;21.35;41.77
30875;BME280;17581;43.222;27.924;2023-05-07T09:02:36;101025.16;;;21.54;41.46
30875;BME280;17581;43.222;27.924;2023-05-07T09:05:03;101019.09;;;21.59;41.42
30875;BME280;17581;43.222;27.924;2023-05-07T09:07:30;101015.53;;;21.58;40.78
30875;BME280;17581;43.222;27.924;2023-05-07T09:09:55;101009.75;;;21.68;41.27
30875;BME280;17581;43.222;27.924;2023-05-07T09:12:22;101014.53;;;21.89;40.09
30875;BME280;17581;43.222;27.924;2023-05-07T09:14:48;101008.44;;;21.64;39.77
30875;BME280;17581;43.222;27.924;2023-05-07T09:17:17;101012.69;;;21.52;40.27
30875;BME280;17581;43.222;27.924;2023-05-07T09:19:44;101012.66;;;21.37;40.07
30875;BME280;17581;43.222;27.924;2023-05-07T09:22:10;101004.13;;;21.32;40.41
30875;BME280;17581;43.222;27.924;2023-05-07T09:24:37;101007.50;;;21.20;40.94
30875;BME280;17581;43.222;27.924;2023-05-07T09:27:07;101004.47;;;21.14;42.28
30875;BME280;17581;43.222;27.924;2023-05-07T09:29:34;101000.88;;;21.14;42.60
30875;BME280;17581;43.222;27.924;2023-05-07T09:32:06;100996.13;;;21.31;41.60
30875;BME280;17581;43.222;27.924;2023-05-07T09:34:32;101010.94;;;21.36;41.90
30875;BME280;17581;43.222;27.924;2023-05-07T09:37:05;101000.22;;;21.49;42.95
30875;BME280;17581;43.222;27.924;2023-05-07T09:39:44;101005.59;;;21.57;43.06
30875;BME280;17581;43.222;27.924;2023-05-07T09:42:10;100990.84;;;21.44;42.79
30875;BME280;17581;43.222;27.924;2023-05-07T09:44:40;100979.34;;;21.34;42.07
30875;BME280;17581;43.222;27.924;2023-05-07T09:47:07;100996.44;;;21.50;42.01
30875;BME280;17581;43.222;27.924;2023-05-07T09:49:37;100982.94;;;21.49;41.36
30875;BME280;17581;43.222;27.924;2023-05-07T09:52:06;100992.19;;;21.48;41.18
30875;BME280;17581;43.222;27.924;2023-05-07T09:54:35;100962.44;;;21.30;41.51
30875;BME280;17581;43.222;27.924;2023-05-07T09:57:04;100988.44;;;21.49;42.54
30875;BME280;17581;43.222;27.924;2023-05-07T09:59:31;101004.13;;;21.32;43.80
30875;BME280;17581;43.222;27.924;2023-05-07T10:01:58;100983.00;;;21.03;45.63
30875;BME280;17581;43.222;27.924;2023-05-07T10:04:27;100986.16;;;20.92;46.01
30875;BME280;17581;43.222;27.924;2023-05-07T10:06:54;100992.97;;;20.74;46.96
30875;BME280;17581;43.222;27.924;2023-05-07T10:09:20;100994.44;;;20.84;47.56
30875;BME280;17581;43.222;27.924;2023-05-07T10:11:48;100991.63;;;20.92;48.34
30875;BME280;17581;43.222;27.924;2023-05-07T10:14:14;100992.25;;;21.02;47.25
30875;BME280;17581;43.222;27.924;2023-05-07T10:16:40;100998.56;;;21.03;45.97
30875;BME280;17581;43.222;27.924;2023-05-07T10:19:08;100992.97;;;20.96;45.12
30875;BME280;17581;43.222;27.924;2023-05-07T10:21:37;100998.34;;;21.12;45.97
30875;BME280;17581;43.222;27.924;2023-05-07T10:24:08;100987.59;;;21.26;46.28
30875;BME280;17581;43.222;27.924;2023-05-07T10:26:42;101001.84;;;21.21;46.34
30875;BME280;17581;43.222;27.924;2023-05-07T10:34:47;100969.78;;;21.30;45.72
30875;BME280;17581;43.222;27.924;2023-05-07T10:37:14;100982.25;;;21.32;46.62
30875;BME280;17581;43.222;27.924;2023-05-07T10:39:40;100976.00;;;21.24;46.96
30875;BME280;17581;43.222;27.924;2023-05-07T10:42:13;100984.69;;;21.27;47.70
30875;BME280;17581;43.222;27.924;2023-05-07T10:44:39;100974.63;;;20.82;49.40
30875;BME280;17581;43.222;27.924;2023-05-07T10:49:30;100989.50;;;20.80;49.09
30875;BME280;17581;43.222;27.924;2023-05-07T10:52:18;100971.91;;;20.82;49.71
30875;BME280;17581;43.222;27.924;2023-05-07T10:54:45;100969.34;;;21.03;47.33
30875;BME280;17581;43.222;27.924;2023-05-07T10:57:36;100994.59;;;21.05;47.18
30875;BME280;17581;43.222;27.924;2023-05-07T11:03:17;100992.41;;;21.01;46.63
30875;BME280;17581;43.222;27.924;2023-05-07T11:05:42;100967.94;;;20.85;47.18
30875;BME280;17581;43.222;27.924;2023-05-07T11:08:09;100987.84;;;21.16;46.74
30875;BME280;17581;43.222;27.924;2023-05-07T11:10:48;100995.38;;;21.22;46.78
30875;BME280;17581;43.222;27.924;2023-05-07T11:13:15;100987.56;;;21.11;47.98
30875;BME280;17581;43.222;27.924;2023-05-07T11:15:43;100998.81;;;21.16;48.41
30875;BME280;17581;43.222;27.924;2023-05-07T11:18:11;100974.75;;;21.11;47.93
30875;BME280;17581;43.222;27.924;2023-05-07T11:20:49;101001.50;;;21.24;47.45
30875;BME280;17581;43.222;27.924;2023-05-07T11:28:28;101007.00;;;21.39;47.77
30875;BME280;17581;43.222;27.924;2023-05-07T11:30:54;100992.81;;;21.35;47.75
30875;BME280;17581;43.222;27.924;2023-05-07T11:33:20;101001.28;;;21.26;48.84
30875;BME280;17581;43.222;27.924;2023-05-07T11:35:47;101002.81;;;21.28;48.77
30875;BME280;17581;43.222;27.924;2023-05-07T11:38:13;101017.03;;;21.46;48.78
30875;BME280;17581;43.222;27.924;2023-05-07T11:40:51;101006.81;;;21.40;49.56
30875;BME280;17581;43.222;27.924;2023-05-07T11:43:17;101008.13;;;21.44;50.50
30875;BME280;17581;43.222;27.924;2023-05-07T11:45:42;101017.91;;;21.24;51.01
30875;BME280;17581;43.222;27.924;2023-05-07T11:48:09;100986.53;;;20.89;52.12
30875;BME280;17581;43.222;27.924;2023-05-07T11:50:34;100992.03;;;21.12;50.91
30875;BME280;17581;43.222;27.924;2023-05-07T11:53:00;100991.50;;;21.31;49.20
30875;BME280;17581;43.222;27.924;2023-05-07T11:55:25;100968.81;;;21.23;48.92
30875;BME280;17581;43.222;27.924;2023-05-07T11:57:51;100993.13;;;21.40;49.16
30875;BME280;17581;43.222;27.924;2023-05-07T12:00:17;100988.22;;;21.50;49.00
30875;BME280;17581;43.222;27.924;2023-05-07T12:02:44;100999.66;;;21.68;46.62
30875;BME280;17581;43.222;27.924;2023-05-07T12:05:10;100976.47;;;21.64;44.87
30875;BME280;17581;43.222;27.924;2023-05-07T12:07:36;100969.63;;;21.31;43.60
30875;BME280;17581;43.222;27.924;2023-05-07T12:10:07;100983.22;;;21.39;43.75
30875;BME280;17581;43.222;27.924;2023-05-07T12:12:40;100974.38;;;21.14;44.15
30875;BME280;17581;43.222;27.924;2023-05-07T12:15:07;100975.47;;;21.28;44.47
30875;BME280;17581;43.222;27.924;2023-05-07T12:17:33;100984.34;;;21.45;41.87
30875;BME280;17581;43.222;27.924;2023-05-07T12:20:00;100958.47;;;21.18;41.65
30875;BME280;17581;43.222;27.924;2023-05-07T12:22:26;100961.22;;;21.33;43.56
30875;BME280;17581;43.222;27.924;2023-05-07T12:24:58;100979.84;;;21.66;44.24
30875;BME280;17581;43.222;27.924;2023-05-07T12:27:24;100965.09;;;21.38;46.01
30875;BME280;17581;43.222;27.924;2023-05-07T12:29:50;100979.13;;;21.35;46.76
30875;BME280;17581;43.222;27.924;2023-05-07T12:32:20;100955.25;;;21.29;46.87
30875;BME280;17581;43.222;27.924;2023-05-07T12:34:46;100958.31;;;20.89;47.83
30875;BME280;17581;43.222;27.924;2023-05-07T12:37:12;100972.97;;;20.96;47.76
30875;BME280;17581;43.222;27.924;2023-05-07T12:39:38;100962.09;;;20.65;48.57
30875;BME280;17581;43.222;27.924;2023-05-07T12:42:15;100966.53;;;20.66;48.42
30875;BME280;17581;43.222;27.924;2023-05-07T12:44:41;100980.94;;;20.83;46.19
30875;BME280;17581;43.222;27.924;2023-05-07T12:47:07;100980.56;;;20.86;47.71
30875;BME280;17581;43.222;27.924;2023-05-07T12:49:34;100978.41;;;20.81;47.53
30875;BME280;17581;43.222;27.924;2023-05-07T12:52:02;100962.88;;;20.74;48.34